Terminal Aerodrome Forecast
Issued by NWS

Home | Current Version | Previous Version | Text Only | Print | Product List | Glossary On
Versions: 1 2 3 4 5 6 7 8 9 10 11 12 13 14 15 16
000
FTUS43 KAPX 201100
TAFAPN
TAF
KAPN 201132Z 2012/2112 20009KT P6SM -SHRA OVC040 WS015/24036KT
      TEMPO 2012/2013 3SM TSRA OVC035CB
     FM201700 21009KT P6SM VCSH BKN050
     FM210000 22005KT P6SM BKN025
     FM210400 23003KT P6SM SCT050
     FM210900 VRB03KT 6SM -SHRA SCT015 BKN090=

USA.gov is the U.S. government's official web portal to all federal, state and local government web resources and services.